Aeroporto :
LOGIN :

Iscrizione | Disclaimer

   EN    FR    IT 

 










Sommario :    VFR   VFR Marginale   IFR   IFR Intensivo   IFR Molto Intensivo
Visibilità : 
Base nubi : 
>= 8 km
>= 3000ft
5 / 8 km
1000 / 3000 ft
1500m / 5 km
500 / 1000 ft
800 / 1500m
200 / 500 ft
< 800m
< 200 ft
Simboli :   Temporali  Nebbia  Neve Forte  Precipitazioni Forti  Vento > 20 kt
SIGMETs :   Varie  Temporali  Ghiacco  Turbolenza  Onda orograficha  Ceneri Vulcaniche






- Altitudine del aeroporto : 9 ft
- Codice IATA : MIR


DTMB - Habib Bourguliba Int. Monastir

ULTIMO METAR :
  • 071300Z AUTO 03006KT 010V070 /// 17/13 Q1025

METARs OBSOLETI :
  • 071230Z 01006KT 9999 FEW026 17/13 Q1025 NOSIG
  • 071200Z 02007KT 340V040 9999 FEW026 18/13 Q1025 NOSIG
  • 071130Z 02008KT 9999 FEW026 17/12 Q1026 NOSIG
  • 071100Z 01009KT 9999 FEW026 17/12 Q1026 NOSIG
  • 071030Z 36008KT 9999 FEW026 17/12 Q1026 NOSIG

TAF TAF DTMB
Valido dal 07 a 12 ore il 08 a 12 ore UTC


071100Z 0712/0812 36010KT 9999 FEW026
BECMG 0712/0714 06010KT
BECMG 0716/0718 12010KT
BECMG 0721/0723 18002KT
PROB30 0804/0807 2000 BR



MetMap, La meteo Aeronautica in un colpo d'occhio ! - Copyright ORBIFLY Dicembre 2007 - Disclaimer

ORBIFLY MET'MAP TEAM :

Programmazione e sviluppo : Alexandra Zaïnal
Concezione : Baudouin d'Aumeries
Aiuto per la programmazione : Marc-Olivier Méhu
Supporto tecnico e logistico : Manuel Goepfert
Aiuto per la traduzione : Arnaldo La Scala

Contatto : metmap@orbifly.com




FONTI E CREDITI :

   NOAA